Time;durP1;ratioP1;P1;durP2;ratioP2;P2;SDS_P1;SDS_P2;PMS_P1;PMS_P2;Temp;Humidity;BMP_temperature;BMP_pressure;BME280_temperature;BME280_humidity;BME280_pressure;Samples;Min_cycle;Max_cycle;Signal;HPM_P1;HPM_P2
2021/07/17 00:00:21;;;;;;;13.13;5.32;;;;;;;27.49;34.56;100226.44;5032719;28;20080;-66
2021/07/17 00:02:48;;;;;;;9.60;6.28;;;;;;;27.43;35.09;100241.56;5036896;28;20133;-71
2021/07/17 00:05:17;;;;;;;9.95;4.60;;;;;;;27.27;35.22;100225.50;5040219;28;20048;-69
2021/07/17 00:07:45;;;;;;;15.82;4.53;;;;;;;27.23;35.30;100233.28;5048134;28;20128;-64
2021/07/17 00:10:23;;;;;;;9.32;4.13;;;;;;;27.18;35.63;100239.41;5033654;28;20064;-66
2021/07/17 00:12:50;;;;;;;7.65;4.07;;;;;;;27.02;35.90;100219.63;5035677;28;20451;-65
2021/07/17 00:15:21;;;;;;;7.88;3.90;;;;;;;26.98;35.67;100217.97;5044779;28;20072;-71
2021/07/17 00:17:48;;;;;;;6.05;3.45;;;;;;;26.97;35.78;100234.31;5037160;28;20496;-68
2021/07/17 00:20:16;;;;;;;9.52;3.65;;;;;;;26.99;36.08;100239.66;5039715;28;20132;-67
2021/07/17 00:22:43;;;;;;;5.00;3.53;;;;;;;26.89;36.12;100218.31;5058397;28;20147;-68
2021/07/17 00:25:13;;;;;;;6.53;3.13;;;;;;;27.00;36.86;100239.25;5030893;28;20069;-61
2021/07/17 00:27:40;;;;;;;5.32;2.97;;;;;;;27.05;36.90;100232.34;5038472;28;20068;-61
2021/07/17 00:30:08;;;;;;;5.30;3.33;;;;;;;27.16;36.24;100241.84;5040665;28;20137;-61
2021/07/17 00:32:35;;;;;;;6.93;2.50;;;;;;;27.15;36.05;100238.16;5046220;28;20068;-63
2021/07/17 00:35:06;;;;;;;6.97;3.15;;;;;;;27.17;36.29;100237.75;5044941;28;20060;-63
2021/07/17 00:37:34;;;;;;;7.45;3.13;;;;;;;27.24;36.23;100239.84;5042915;28;20137;-62
2021/07/17 00:40:02;;;;;;;7.20;3.67;;;;;;;27.35;36.55;100232.94;5047848;28;20077;-63
2021/07/17 00:42:30;;;;;;;4.97;2.63;;;;;;;27.41;36.29;100236.22;5042447;28;20081;-63
2021/07/17 00:44:57;;;;;;;5.53;2.85;;;;;;;27.44;36.06;100241.16;5042021;28;20539;-64
2021/07/17 00:47:28;;;;;;;4.97;2.40;;;;;;;27.45;36.64;100236.22;5032850;28;20049;-65
2021/07/17 00:49:54;;;;;;;6.32;3.17;;;;;;;27.46;35.53;100244.44;5035265;28;20128;-67
2021/07/17 00:52:21;;;;;;;4.78;3.05;;;;;;;27.48;35.71;100236.25;5057422;28;20045;-77
2021/07/17 00:54:49;;;;;;;7.18;3.25;;;;;;;27.31;35.74;100186.19;5041186;28;20073;-77
2021/07/17 00:57:17;;;;;;;8.13;3.00;;;;;;;27.54;35.72;100222.34;5033867;28;20052;-66
2021/07/17 00:59:47;;;;;;;8.50;3.78;;;;;;;27.48;35.62;100229.69;5035356;28;20077;-66
2021/07/17 01:02:17;;;;;;;7.28;3.72;;;;;;;27.34;35.70;100216.13;5038306;28;20136;-66
2021/07/17 01:04:45;;;;;;;6.43;3.25;;;;;;;27.27;36.55;100230.44;5036024;28;20043;-68
2021/07/17 01:07:12;;;;;;;11.23;4.03;;;;;;;27.14;36.72;100227.09;5069297;28;20088;-71
2021/07/17 01:09:39;;;;;;;7.15;3.53;;;;;;;27.02;37.22;100233.97;5056834;28;20107;-72
2021/07/17 01:12:06;;;;;;;4.72;3.17;;;;;;;26.81;37.65;100208.06;5032749;28;20136;-74
2021/07/17 01:14:33;;;;;;;5.75;3.78;;;;;;;26.80;38.39;100217.84;5033261;28;20055;-74
2021/07/17 01:17:00;;;;;;;5.72;4.18;;;;;;;26.61;38.41;100211.19;5034935;28;20124;-72
2021/07/17 01:19:27;;;;;;;6.72;3.83;;;;;;;26.58;38.19;100211.97;5032322;28;20068;-68
2021/07/17 01:21:54;;;;;;;6.78;3.72;;;;;;;26.58;38.25;100217.72;5043350;28;20139;-71
2021/07/17 01:24:23;;;;;;;6.82;3.63;;;;;;;26.45;38.54;100202.03;5038714;28;20477;-69
2021/07/17 01:26:51;;;;;;;8.98;4.18;;;;;;;26.51;38.31;100213.97;5037424;28;20489;-70
2021/07/17 01:29:19;;;;;;;7.93;4.20;;;;;;;26.47;38.29;100213.94;5036867;28;20131;-71
2021/07/17 01:31:46;;;;;;;6.97;3.67;;;;;;;26.46;38.22;100224.56;5042722;28;20080;-70
2021/07/17 01:34:13;;;;;;;6.55;3.88;;;;;;;26.45;38.31;100217.16;5037286;28;20045;-70
2021/07/17 01:36:40;;;;;;;6.68;3.38;;;;;;;26.46;38.74;100217.97;5034131;28;20072;-70
2021/07/17 01:39:08;;;;;;;9.38;3.88;;;;;;;26.48;38.90;100206.19;5034351;28;20076;-71
2021/07/17 01:41:35;;;;;;;8.23;3.58;;;;;;;26.49;39.07;100204.94;5040941;28;20497;-72
2021/07/17 01:44:02;;;;;;;7.25;3.53;;;;;;;26.49;38.83;100197.19;5036979;28;20080;-73
2021/07/17 01:46:29;;;;;;;5.30;3.53;;;;;;;26.45;39.07;100202.03;5042600;28;20512;-72
2021/07/17 01:48:57;;;;;;;8.35;4.30;;;;;;;26.37;39.40;100186.84;5033888;28;20049;-66
2021/07/17 01:51:25;;;;;;;8.18;4.10;;;;;;;26.33;39.96;100202.34;5034434;28;20132;-67
2021/07/17 01:53:56;;;;;;;7.20;3.53;;;;;;;25.99;39.69;100148.09;5040101;28;20131;-66
2021/07/17 01:56:25;;;;;;;5.93;3.22;;;;;;;26.33;39.25;100188.03;5037120;28;20073;-69
2021/07/17 01:58:54;;;;;;;7.47;3.65;;;;;;;26.30;39.98;100200.28;5037822;28;20045;-66
2021/07/17 02:01:22;;;;;;;4.40;3.20;;;;;;;26.34;39.24;100187.63;5038384;28;20129;-66
2021/07/17 02:03:50;;;;;;;6.00;2.95;;;;;;;26.32;39.02;100183.50;5042085;28;20049;-67
2021/07/17 02:06:25;;;;;;;8.50;4.18;;;;;;;26.33;39.43;100190.91;5042038;28;20048;-69
2021/07/17 02:08:53;;;;;;;7.10;3.88;;;;;;;26.10;39.92;100157.59;5049139;28;20502;-70
2021/07/17 02:11:20;;;;;;;6.28;3.78;;;;;;;26.30;40.01;100183.09;5040872;28;20041;-70
2021/07/17 02:13:49;;;;;;;4.93;3.50;;;;;;;26.47;39.75;100193.91;5041514;28;20477;-70
2021/07/17 02:16:18;;;;;;;5.03;3.33;;;;;;;26.57;39.76;100193.16;5042858;28;21815;-68
2021/07/17 02:18:46;;;;;;;6.80;3.13;;;;;;;26.66;39.20;100202.19;5040131;28;20146;-68
2021/07/17 02:21:15;;;;;;;5.20;3.20;;;;;;;26.66;39.90;100187.88;5038037;28;20131;-68
2021/07/17 02:23:42;;;;;;;6.30;3.40;;;;;;;26.63;39.76;100188.72;5034080;28;20076;-68
2021/07/17 02:26:10;;;;;;;5.05;3.55;;;;;;;26.64;39.39;100193.22;5041294;28;20128;-65
2021/07/17 02:28:39;;;;;;;5.70;3.35;;;;;;;26.62;39.63;100184.19;5042736;28;20065;-64
2021/07/17 02:31:06;;;;;;;;;;;;;;;26.45;40.07;100190.56;5033627;28;20080;-64
2021/07/17 02:33:33;;;;;;;6.03;3.35;;;;;;;26.56;39.94;100179.22;5034378;28;19921;-63
2021/07/17 02:36:01;;;;;;;6.13;3.05;;;;;;;26.68;39.17;100170.31;5040875;28;20567;-64
2021/07/17 02:38:28;;;;;;;6.50;3.72;;;;;;;26.96;38.78;100192.56;5050120;28;20128;-69
2021/07/17 02:40:55;;;;;;;9.20;3.70;;;;;;;26.99;39.46;100168.03;5038888;28;20493;-69
2021/07/17 02:43:22;;;;;;;9.18;3.88;;;;;;;27.04;39.03;100179.09;5045658;28;20064;-67
2021/07/17 02:45:48;;;;;;;6.40;2.90;;;;;;;26.92;39.66;100152.44;5041418;28;20136;-63
2021/07/17 02:48:15;;;;;;;7.18;3.20;;;;;;;27.20;38.86;100175.94;5034359;28;20042;-63
2021/07/17 02:50:42;;;;;;;6.95;3.17;;;;;;;27.16;39.11;100178.78;5033379;28;20052;-63
2021/07/17 02:53:09;;;;;;;6.70;4.10;;;;;;;27.21;38.99;100174.69;5042938;28;20132;-67
2021/07/17 02:55:36;;;;;;;7.60;3.42;;;;;;;27.21;38.73;100175.50;5036271;28;20084;-64
2021/07/17 02:58:04;;;;;;;9.38;3.55;;;;;;;27.21;38.90;100186.16;5035322;28;20132;-64
2021/07/17 03:00:34;;;;;;;7.38;4.00;;;;;;;27.24;38.52;100177.59;5037969;28;20098;-67
2021/07/17 03:03:02;;;;;;;4.78;3.20;;;;;;;27.24;39.04;100166.13;5046695;28;20099;-66
2021/07/17 03:05:30;;;;;;;7.00;3.35;;;;;;;27.23;39.14;100160.78;5037026;28;20557;-66
2021/07/17 03:07:57;;;;;;;7.20;3.75;;;;;;;27.07;39.86;100147.59;5038507;28;20525;-66
2021/07/17 03:10:24;;;;;;;5.07;3.67;;;;;;;27.19;39.10;100165.69;5052924;28;20107;-66
2021/07/17 03:12:50;;;;;;;4.93;3.35;;;;;;;27.12;39.10;100157.84;5034131;28;20073;-65
2021/07/17 03:15:17;;;;;;;7.53;3.40;;;;;;;27.12;39.20;100163.59;5038804;28;20067;-66
2021/07/17 03:17:44;;;;;;;4.63;2.72;;;;;;;27.00;39.01;100153.28;5037663;28;20528;-67
2021/07/17 03:20:12;;;;;;;6.70;2.72;;;;;;;27.08;39.01;100151.31;5034147;28;20099;-65
2021/07/17 03:22:39;;;;;;;4.45;3.08;;;;;;;27.10;38.98;100163.97;5046725;28;20128;-65
2021/07/17 03:25:08;;;;;;;4.78;2.92;;;;;;;27.17;39.18;100152.56;5038633;28;20532;-65
2021/07/17 03:27:35;;;;;;;5.68;3.28;;;;;;;27.14;38.52;100135.38;5041236;28;20045;-66
2021/07/17 03:30:07;;;;;;;5.03;3.35;;;;;;;27.22;38.65;100159.97;5033926;28;20124;-65
2021/07/17 03:32:34;;;;;;;6.80;3.70;;;;;;;27.16;39.41;100155.84;5033522;28;20450;-66
2021/07/17 03:35:02;;;;;;;5.90;3.80;;;;;;;26.99;39.41;100162.31;5038973;28;20152;-64
2021/07/17 03:37:29;;;;;;;6.57;4.05;;;;;;;26.89;39.62;100161.03;5035114;28;20049;-65
2021/07/17 03:39:56;;;;;;;7.00;3.95;;;;;;;26.76;40.68;100168.31;5038495;28;20580;-65
2021/07/17 03:42:23;;;;;;;6.93;4.28;;;;;;;26.45;40.95;100139.03;5041668;28;20136;-64
2021/07/17 03:44:50;;;;;;;6.38;3.80;;;;;;;26.39;40.31;100157.81;5046218;28;20076;-68
2021/07/17 03:47:17;;;;;;;6.07;3.78;;;;;;;26.46;39.94;100163.56;5048706;28;20128;-70
2021/07/17 03:49:44;;;;;;;4.95;3.53;;;;;;;26.51;39.95;100171.03;5038173;28;20073;-68
2021/07/17 03:52:11;;;;;;;6.13;3.35;;;;;;;26.54;39.83;100159.59;5048346;28;20503;-67
2021/07/17 03:54:38;;;;;;;5.20;2.95;;;;;;;26.54;39.77;100156.72;5033919;28;20405;-67
2021/07/17 03:57:05;;;;;;;4.97;3.28;;;;;;;26.54;39.57;100148.13;5037360;28;20128;-69
2021/07/17 03:59:32;;;;;;;5.53;3.03;;;;;;;26.62;40.42;100163.31;5030064;28;20045;-67
2021/07/17 04:01:59;;;;;;;4.63;3.30;;;;;;;26.73;39.75;100161.31;5034605;28;20077;-72
2021/07/17 04:04:27;;;;;;;7.13;3.90;;;;;;;26.78;40.15;100163.00;5033187;28;20559;-70
2021/07/17 04:06:53;;;;;;;8.45;3.95;;;;;;;26.66;40.48;100155.56;5037135;28;20532;-72
2021/07/17 04:09:20;;;;;;;6.53;3.47;;;;;;;26.66;40.50;100170.69;5031987;28;20136;-76
2021/07/17 04:11:47;;;;;;;10.20;5.05;;;;;;;26.45;40.72;100144.75;5035171;28;20525;-70
2021/07/17 04:14:14;;;;;;;5.38;3.85;;;;;;;26.42;40.83;100157.00;5043098;28;20045;-71
2021/07/17 04:16:42;;;;;;;6.35;4.00;;;;;;;26.33;40.94;100160.22;5033191;28;20475;-71
2021/07/17 04:19:10;;;;;;;6.93;3.95;;;;;;;26.28;40.24;100168.34;5034301;28;20941;-66
2021/07/17 04:21:36;;;;;;;6.55;4.18;;;;;;;26.24;40.01;100169.16;5034015;28;20075;-66
2021/07/17 04:24:03;;;;;;;6.40;3.22;;;;;;;26.30;39.99;100163.88;5032257;28;20056;-68
2021/07/17 04:26:30;;;;;;;5.05;3.28;;;;;;;26.32;39.97;100169.19;5030770;28;20080;-68
2021/07/17 04:28:57;;;;;;;6.63;4.07;;;;;;;26.28;40.51;100165.50;5048586;28;20049;-68
2021/07/17 04:31:24;;;;;;;5.35;3.38;;;;;;;26.26;40.11;100173.66;5044598;28;20049;-68
2021/07/17 04:33:51;;;;;;;5.22;3.67;;;;;;;26.24;40.06;100171.19;5036336;28;20512;-70
2021/07/17 04:36:18;;;;;;;5.35;3.47;;;;;;;26.28;39.63;100179.81;5043041;28;20049;-69
2021/07/17 04:38:45;;;;;;;4.90;3.20;;;;;;;26.10;40.00;100157.59;5032591;28;20141;-69
2021/07/17 04:41:12;;;;;;;5.95;3.03;;;;;;;26.25;39.73;100172.81;5030337;28;20073;-67
2021/07/17 04:43:39;;;;;;;7.03;3.05;;;;;;;26.30;39.41;100172.47;5050050;28;20091;-65
2021/07/17 04:46:06;;;;;;;5.60;3.40;;;;;;;26.20;39.43;100154.00;5039399;28;20077;-65
2021/07/17 04:48:33;;;;;;;4.55;2.92;;;;;;;26.34;39.71;100184.78;5048486;28;20092;-66
2021/07/17 04:51:00;;;;;;;4.38;3.20;;;;;;;26.35;39.41;100186.41;5049008;28;20109;-64
2021/07/17 04:53:26;;;;;;;4.53;2.95;;;;;;;26.31;39.69;100185.56;5047932;28;20129;-63
2021/07/17 04:55:53;;;;;;;5.88;3.33;;;;;;;26.37;39.61;100183.97;5044139;28;20080;-64
2021/07/17 04:58:20;;;;;;;4.60;3.03;;;;;;;26.28;39.08;100168.34;5031742;28;20128;-63
2021/07/17 05:00:47;;;;;;;4.53;3.10;;;;;;;26.44;39.19;100186.06;5046693;28;20147;-64
2021/07/17 05:03:14;;;;;;;4.53;3.08;;;;;;;26.53;39.10;100185.75;5040285;28;20099;-67
2021/07/17 05:05:41;;;;;;;5.18;3.53;;;;;;;26.60;38.86;100178.06;5035864;28;20555;-63
2021/07/17 05:08:08;;;;;;;4.22;2.58;;;;;;;26.53;38.90;100165.69;5045294;28;20147;-64
2021/07/17 05:10:35;;;;;;;7.10;3.42;;;;;;;26.59;39.12;100184.97;5035836;28;20076;-74
2021/07/17 05:13:13;;;;;;;4.32;3.17;;;;;;;26.57;38.95;100173.13;5038318;28;20569;-67
2021/07/17 05:15:40;;;;;;;5.72;3.15;;;;;;;26.40;38.92;100131.66;5046955;28;20053;-67
2021/07/17 05:18:08;;;;;;;5.85;3.75;;;;;;;26.72;39.00;100176.88;5040614;28;20084;-70
2021/07/17 05:20:35;;;;;;;6.03;3.25;;;;;;;26.69;38.39;100184.22;5047559;28;22442;-67
2021/07/17 05:23:01;;;;;;;4.70;3.20;;;;;;;26.75;38.62;100195.31;5039684;28;20128;-64
2021/07/17 05:25:29;;;;;;;4.32;2.97;;;;;;;26.52;38.64;100152.63;5036391;28;20073;-71
2021/07/17 05:27:56;;;;;;;5.82;2.90;;;;;;;26.57;38.86;100187.44;5037008;28;20080;-64
2021/07/17 05:30:23;;;;;;;5.03;2.90;;;;;;;26.58;38.83;100211.97;5040169;28;20142;-67
2021/07/17 05:32:50;;;;;;;6.10;3.30;;;;;;;26.53;38.63;100197.19;5055638;28;20717;-70
2021/07/17 05:35:17;;;;;;;6.32;3.50;;;;;;;26.42;39.11;100203.63;5036449;28;20139;-66
2021/07/17 05:37:46;;;;;;;4.35;3.13;;;;;;;26.51;38.98;100211.94;5044595;28;20106;-67
2021/07/17 05:40:14;;;;;;;6.82;3.03;;;;;;;26.55;39.05;100211.94;5039338;28;20419;-66
2021/07/17 05:42:41;;;;;;;3.47;2.75;;;;;;;26.57;39.34;100216.06;5036596;28;20128;-66
2021/07/17 05:45:08;;;;;;;7.70;2.60;;;;;;;26.63;39.33;100217.34;5035778;28;20081;-67
2021/07/17 05:47:35;;;;;;;7.22;2.78;;;;;;;26.61;38.71;100210.38;5039868;28;20080;-66
2021/07/17 05:50:02;;;;;;;3.80;2.45;;;;;;;26.85;38.42;100214.63;5067022;28;20052;-63
2021/07/17 05:52:29;;;;;;;4.13;2.53;;;;;;;27.02;38.22;100227.41;5050483;28;20049;-63
2021/07/17 05:54:56;;;;;;;3.78;2.55;;;;;;;27.23;37.54;100224.69;5041553;28;20128;-63
2021/07/17 05:57:23;;;;;;;6.03;2.53;;;;;;;27.45;37.06;100224.75;5040985;28;20099;-63
2021/07/17 05:59:50;;;;;;;6.28;3.42;;;;;;;27.31;37.19;100177.59;5036275;28;20141;-72
2021/07/17 06:02:17;;;;;;;9.43;4.40;;;;;;;27.76;37.32;100229.00;5038134;28;20037;-66
2021/07/17 06:04:45;;;;;;;7.05;4.40;;;;;;;27.81;37.86;100225.75;5048456;28;20060;-64
2021/07/17 06:07:12;;;;;;;5.82;4.13;;;;;;;27.25;37.38;100138.25;5039435;28;20133;-72
2021/07/17 06:09:41;;;;;;;10.82;3.13;;;;;;;27.97;37.17;100229.06;5038769;28;20080;-70
2021/07/17 06:12:08;;;;;;;4.85;3.50;;;;;;;27.94;37.29;100209.78;5039426;28;20073;-61
2021/07/17 06:14:36;;;;;;;3.75;2.95;;;;;;;28.06;36.71;100215.13;5042984;28;20469;-62
2021/07/17 06:17:04;;;;;;;5.28;2.97;;;;;;;28.14;36.73;100209.38;5035057;28;20073;-62
2021/07/17 06:19:31;;;;;;;5.25;3.30;;;;;;;28.33;36.29;100229.09;5051135;28;20543;-59
2021/07/17 06:22:01;;;;;;;4.22;2.72;;;;;;;28.46;36.14;100236.09;5040025;28;20041;-59
2021/07/17 06:24:28;;;;;;;3.88;2.38;;;;;;;28.62;35.85;100238.56;5034604;28;20042;-60
2021/07/17 06:26:55;;;;;;;6.40;2.67;;;;;;;28.85;35.12;100235.22;5034221;28;20122;-62
2021/07/17 06:29:22;;;;;;;3.50;2.70;;;;;;;29.14;34.32;100238.09;5040528;28;20132;-60
2021/07/17 06:31:49;;;;;;;4.75;2.50;;;;;;;29.37;34.17;100235.53;5033603;28;20071;-66
2021/07/17 06:34:15;;;;;;;5.00;2.63;;;;;;;29.62;33.59;100234.63;5041611;28;20095;-67
2021/07/17 06:36:42;;;;;;;4.47;2.20;;;;;;;29.84;32.64;100236.16;5033712;28;20124;-68
2021/07/17 06:39:09;;;;;;;5.07;2.65;;;;;;;29.97;32.67;100222.91;5035410;28;20045;-68
2021/07/17 06:41:36;;;;;;;7.43;2.47;;;;;;;30.26;31.97;100236.31;5041926;28;20045;-67
2021/07/17 06:44:03;;;;;;;2.88;2.15;;;;;;;30.40;31.51;100233.34;5042659;28;20129;-68
2021/07/17 06:46:30;;;;;;;5.18;2.30;;;;;;;30.53;31.52;100227.84;5030537;28;20140;-67
2021/07/17 06:48:57;;;;;;;3.25;2.38;;;;;;;30.70;31.61;100235.50;5035637;28;20048;-68
2021/07/17 06:51:23;;;;;;;3.47;2.45;;;;;;;30.82;31.61;100237.91;5034753;28;20127;-68
2021/07/17 06:53:50;;;;;;;2.25;1.67;;;;;;;30.96;30.62;100234.06;5040433;28;20477;-66
2021/07/17 06:56:17;;;;;;;4.13;2.35;;;;;;;31.02;30.24;100241.00;5040906;28;20454;-67
2021/07/17 06:58:44;;;;;;;3.53;2.00;;;;;;;31.15;30.30;100239.22;5043383;28;20068;-67
2021/07/17 07:01:11;;;;;;;2.78;1.83;;;;;;;31.34;30.00;100243.53;5039151;28;20120;-67
2021/07/17 07:03:38;;;;;;;4.05;2.40;;;;;;;31.26;29.29;100238.28;5034042;28;20073;-67
2021/07/17 07:06:06;;;;;;;2.95;2.33;;;;;;;31.21;28.41;100239.53;5033673;28;20059;-67
2021/07/17 07:08:33;;;;;;;5.55;2.38;;;;;;;31.31;28.58;100226.25;5036549;28;20087;-67
2021/07/17 07:11:00;;;;;;;5.40;2.67;;;;;;;31.64;28.59;100250.59;5045076;28;20053;-68
2021/07/17 07:13:27;;;;;;;9.57;2.40;;;;;;;31.61;28.25;100246.50;5032056;28;20544;-68
2021/07/17 07:15:54;;;;;;;4.85;2.17;;;;;;;31.44;27.34;100235.19;5036119;28;20449;-67
2021/07/17 07:18:21;;;;;;;6.57;2.22;;;;;;;31.57;27.11;100248.63;5036205;28;20136;-67
2021/07/17 07:20:49;;;;;;;7.35;2.30;;;;;;;31.73;27.20;100247.19;5041202;28;20115;-67
2021/07/17 07:23:16;;;;;;;5.63;2.30;;;;;;;31.93;27.46;100253.94;5034958;28;20569;-68
2021/07/17 07:25:45;;;;;;;4.65;2.88;;;;;;;32.23;27.83;100243.59;5040782;28;20053;-68
2021/07/17 07:28:16;;;;;;;5.00;2.90;;;;;;;32.47;28.63;100258.91;5040657;28;20115;-67
2021/07/17 07:30:43;;;;;;;7.10;3.60;;;;;;;32.53;29.39;100263.75;5033186;28;20148;-66
2021/07/17 07:33:10;;;;;;;10.55;3.67;;;;;;;32.73;29.24;100269.63;5038303;28;20141;-66
2021/07/17 07:35:37;;;;;;;11.30;3.40;;;;;;;32.87;30.12;100273.53;5031581;28;20063;-66
2021/07/17 07:38:04;;;;;;;7.25;3.65;;;;;;;33.04;30.39;100278.19;5051536;28;20132;-68
2021/07/17 07:40:31;;;;;;;5.88;3.08;;;;;;;33.15;29.56;100270.13;5046620;28;20449;-66
2021/07/17 07:42:58;;;;;;;6.82;3.22;;;;;;;33.34;29.84;100282.19;5029948;28;20524;-65
2021/07/17 07:45:25;;;;;;;3.95;2.78;;;;;;;33.37;29.63;100278.38;5037856;28;20045;-67
2021/07/17 07:47:52;;;;;;;6.63;3.33;;;;;;;33.30;29.47;100273.56;5040190;28;20081;-68
2021/07/17 07:50:21;;;;;;;4.03;2.15;;;;;;;33.41;28.44;100276.25;5043535;28;20073;-67
2021/07/17 07:52:48;;;;;;;4.20;2.83;;;;;;;33.52;27.74;100291.34;5051083;28;20071;-67
2021/07/17 07:55:15;;;;;;;7.13;3.00;;;;;;;33.63;27.49;100291.09;5035823;28;20171;-66
2021/07/17 07:57:42;;;;;;;3.72;2.22;;;;;;;33.70;27.92;100300.47;5048470;28;20073;-66
2021/07/17 08:00:13;;;;;;;3.00;1.90;;;;;;;33.71;26.67;100293.41;5051459;28;20687;-66
2021/07/17 08:02:55;;;;;;;2.83;1.88;;;;;;;33.69;26.40;100275.66;5034469;28;20052;-65
2021/07/17 08:05:24;;;;;;;5.93;3.10;;;;;;;33.85;26.29;100292.31;5047457;28;20041;-70
2021/07/17 08:07:51;;;;;;;4.00;2.53;;;;;;;33.99;26.69;100282.47;5051669;28;20100;-68
2021/07/17 08:10:18;;;;;;;6.97;2.65;;;;;;;34.08;26.98;100288.47;5051929;28;20045;-69
2021/07/17 08:12:46;;;;;;;3.70;2.35;;;;;;;34.17;26.15;100303.19;5045680;28;20091;-66
2021/07/17 08:15:14;;;;;;;3.95;2.10;;;;;;;34.26;25.67;100308.38;5032076;28;20081;-63
2021/07/17 08:17:41;;;;;;;5.43;2.00;;;;;;;34.38;25.11;100301.03;5035078;28;20048;-72
2021/07/17 08:20:09;;;;;;;4.45;1.88;;;;;;;34.61;24.63;100300.13;5044108;28;20129;-67
2021/07/17 08:22:37;;;;;;;3.88;2.40;;;;;;;34.81;25.45;100302.94;5048264;28;20136;-67
2021/07/17 08:25:07;;;;;;;5.60;1.80;;;;;;;34.97;24.86;100294.19;5044987;28;20468;-68
2021/07/17 08:27:35;;;;;;;5.90;2.80;;;;;;;35.20;24.25;100307.69;5030869;28;20366;-68
2021/07/17 08:30:03;;;;;;;4.47;2.05;;;;;;;35.40;23.40;100298.84;5046489;28;20080;-67
2021/07/17 08:32:32;;;;;;;4.93;1.67;;;;;;;35.57;23.56;100308.38;5030219;28;20107;-67
2021/07/17 08:34:59;;;;;;;8.23;2.13;;;;;;;35.76;23.15;100307.41;5037900;28;20480;-69
2021/07/17 08:37:26;;;;;;;6.72;2.05;;;;;;;35.84;23.20;100307.97;5054438;28;20493;-69
2021/07/17 08:39:53;;;;;;;3.85;2.15;;;;;;;35.80;22.52;100281.13;5048124;28;20552;-69
2021/07/17 08:42:21;;;;;;;4.60;2.00;;;;;;;35.90;22.34;100291.63;5047008;28;20099;-67
2021/07/17 08:44:50;;;;;;;2.17;1.80;;;;;;;35.91;22.38;100309.88;5042763;28;20045;-67
2021/07/17 08:47:19;;;;;;;3.42;1.92;;;;;;;35.76;21.69;100315.25;5040327;28;20448;-67
2021/07/17 08:49:47;;;;;;;4.65;1.77;;;;;;;35.59;21.81;100314.50;5035634;28;20128;-67
2021/07/17 08:52:14;;;;;;;3.63;2.25;;;;;;;35.63;21.83;100305.72;5045890;28;20078;-67
2021/07/17 08:54:41;;;;;;;3.58;1.95;;;;;;;35.75;21.39;100296.22;5035694;28;20133;-67
2021/07/17 08:57:12;;;;;;;4.05;1.98;;;;;;;35.66;20.89;100304.78;5035273;28;20050;-67
2021/07/17 08:59:39;;;;;;;3.78;2.15;;;;;;;35.54;21.34;100304.28;5042364;28;20120;-67
2021/07/17 09:02:08;;;;;;;4.20;1.70;;;;;;;35.80;21.10;100301.47;5042988;28;20073;-67
2021/07/17 09:04:36;;;;;;;3.17;2.15;;;;;;;35.93;20.68;100308.09;5046734;28;20087;-68
2021/07/17 09:07:03;;;;;;;4.45;2.00;;;;;;;36.22;20.15;100295.63;5051613;28;20499;-68
2021/07/17 09:09:36;;;;;;;2.28;1.77;;;;;;;36.57;20.56;100282.03;5052207;28;20068;-67
2021/07/17 09:12:23;;;;;;;6.82;2.10;;;;;;;36.86;20.45;100290.63;5035702;28;20520;-68
2021/07/17 09:14:51;;;;;;;2.85;1.90;;;;;;;37.14;20.24;100285.09;5052356;28;20128;-68
2021/07/17 09:17:23;;;;;;;2.97;2.10;;;;;;;37.33;19.49;100283.97;5044526;28;20087;-70
2021/07/17 09:19:56;;;;;;;4.40;1.90;;;;;;;37.60;19.93;100289.22;5036391;28;20077;-69
2021/07/17 09:22:30;;;;;;;1.67;1.40;;;;;;;37.79;19.07;100269.78;5040917;28;20073;-68
2021/07/17 09:25:15;;;;;;;5.07;1.70;;;;;;;37.93;19.29;100289.66;5039569;28;20129;-63
2021/07/17 09:27:42;;;;;;;2.50;1.70;;;;;;;37.95;18.57;100289.16;5052523;28;20124;-61
2021/07/17 09:30:31;;;;;;;5.05;1.73;;;;;;;37.99;18.77;100291.97;5048634;28;20041;-62
2021/07/17 09:33:06;;;;;;;5.13;1.70;;;;;;;38.02;18.61;100286.00;5051345;28;20124;-61
2021/07/17 09:35:34;;;;;;;1.88;1.50;;;;;;;38.09;17.98;100305.31;5053495;28;20076;-61
2021/07/17 09:38:03;;;;;;;1.92;1.48;;;;;;;38.09;18.65;100296.56;5054430;28;20127;-61
2021/07/17 09:40:41;;;;;;;;;;;;;;;38.06;19.24;100303.34;5053560;28;20037;-62
2021/07/17 09:43:09;;;;;;;4.15;2.05;;;;;;;38.22;17.96;100294.34;5053279;28;20019;-62
2021/07/17 09:45:37;;;;;;;5.80;1.65;;;;;;;38.37;18.78;100301.25;5041560;28;20128;-62
2021/07/17 09:48:19;;;;;;;;;;;;;;;38.23;19.59;100301.81;5033606;28;20079;-63
2021/07/17 09:50:47;;;;;;;4.15;1.90;;;;;;;38.57;18.64;100317.56;5034867;28;19976;-66
2021/07/17 09:53:36;;;;;;;3.40;1.88;;;;;;;38.52;17.65;100318.16;5051957;28;20504;-66
2021/07/17 09:56:24;;;;;;;2.42;1.75;;;;;;;38.74;17.97;100318.91;5048704;28;20111;-69
2021/07/17 09:58:52;;;;;;;5.80;1.70;;;;;;;38.97;17.65;100314.59;5041532;28;20053;-61
2021/07/17 10:01:22;;;;;;;4.22;1.95;;;;;;;39.13;16.88;100310.56;5046860;28;20128;-60
2021/07/17 10:03:56;;;;;;;3.42;1.73;;;;;;;39.43;17.06;100323.47;5043396;28;20047;-61
2021/07/17 10:06:59;;;;;;;9.45;4.65;;;;;;;39.52;18.60;100326.38;5037215;28;20116;-60
2021/07/17 10:09:31;;;;;;;6.25;4.88;;;;;;;39.34;20.00;100320.53;5042041;28;20049;-61
2021/07/17 10:12:04;;;;;;;8.15;5.20;;;;;;;39.26;20.36;100325.88;5041047;28;20073;-60
2021/07/17 10:14:40;;;;;;;8.10;4.97;;;;;;;39.04;20.69;100325.16;5034407;28;20077;-60
2021/07/17 10:17:11;;;;;;;8.55;4.80;;;;;;;38.74;21.13;100335.59;5037738;28;20589;-59
2021/07/17 10:19:40;;;;;;;11.40;5.40;;;;;;;38.62;21.52;100332.31;5041550;28;20051;-60
2021/07/17 10:22:11;;;;;;;14.50;4.75;;;;;;;38.45;22.59;100324.28;5043972;28;20548;-60
2021/07/17 10:24:38;;;;;;;12.73;5.60;;;;;;;38.44;22.25;100335.16;5039720;28;20041;-60
2021/07/17 10:27:06;;;;;;;10.18;5.40;;;;;;;38.18;22.44;100334.50;5051995;28;20163;-59
2021/07/17 10:29:33;;;;;;;6.63;5.00;;;;;;;37.85;23.07;100351.59;5044278;28;20128;-60
2021/07/17 10:32:00;;;;;;;10.00;5.07;;;;;;;37.48;23.51;100342.56;5046519;28;20041;-59
2021/07/17 10:34:28;;;;;;;11.65;5.57;;;;;;;37.15;24.10;100350.78;5046113;28;20053;-60
2021/07/17 10:37:04;;;;;;;7.10;4.60;;;;;;;37.26;23.79;100332.91;5040830;28;20413;-60
2021/07/17 10:39:34;;;;;;;7.47;5.03;;;;;;;37.05;24.10;100340.31;5040400;28;20099;-61
2021/07/17 10:42:09;;;;;;;8.52;5.28;;;;;;;36.77;24.44;100348.72;4996988;28;1312599;-60
2021/07/17 10:44:56;;;;;;;8.20;4.68;;;;;;;36.52;25.18;100344.53;5039321;28;20064;-59
2021/07/17 10:47:24;;;;;;;6.38;4.50;;;;;;;36.56;25.27;100350.22;5041302;28;20133;-59
2021/07/17 10:49:53;;;;;;;16.67;4.85;;;;;;;36.89;25.26;100344.97;5040003;28;20127;-59
2021/07/17 10:52:34;;;;;;;10.55;5.07;;;;;;;36.82;24.93;100348.09;5046225;28;20045;-59
2021/07/17 10:55:24;;;;;;;11.55;4.97;;;;;;;36.57;24.82;100351.84;5051204;28;20068;-59
2021/07/17 10:57:52;;;;;;;8.45;4.22;;;;;;;36.57;24.62;100354.75;5040336;28;20052;-58
2021/07/17 11:01:10;;;;;;;7.32;3.85;;;;;;;36.29;24.97;100353.56;5037109;28;20088;-59
2021/07/17 11:03:46;;;;;;;6.88;4.43;;;;;;;36.27;24.71;100364.81;5034741;28;20136;-60
2021/07/17 11:06:22;;;;;;;5.78;4.60;;;;;;;36.31;24.58;100351.00;5035397;28;20516;-60
2021/07/17 11:08:49;;;;;;;6.40;3.92;;;;;;;36.69;24.29;100359.78;5034164;28;20096;-59
2021/07/17 11:11:34;;;;;;;9.00;4.00;;;;;;;37.04;23.85;100361.97;5037612;28;20148;-59
2021/07/17 11:14:06;;;;;;;7.88;4.03;;;;;;;36.94;24.08;100356.03;5032745;28;20076;-59
2021/07/17 11:16:50;;;;;;;7.30;4.00;;;;;;;36.72;24.20;100358.00;5040491;28;20045;-59
2021/07/17 11:19:27;;;;;;;6.30;3.40;;;;;;;36.74;23.93;100361.28;5034125;28;20045;-60
2021/07/17 11:22:07;;;;;;;4.88;3.42;;;;;;;36.91;23.29;100359.06;5040960;28;20099;-59
2021/07/17 11:24:34;;;;;;;6.80;3.40;;;;;;;36.95;22.68;100360.56;5033976;28;20092;-59
2021/07/17 11:27:09;;;;;;;5.70;3.80;;;;;;;36.98;23.05;100376.31;5037694;28;20163;-59
2021/07/17 11:29:46;;;;;;;5.03;3.80;;;;;;;36.65;22.65;100372.78;5046456;28;20045;-59
2021/07/17 11:32:16;;;;;;;8.15;3.20;;;;;;;36.44;23.53;100360.53;5037034;28;20140;-59